ADDS METAR Data INFO
IDs: Format: Raw Decoded Include TAF

Data at: 0733 UTC 21 Jul 2018

PAOU 210656Z AUTO 13019KT 10SM OVC039 14/11 A3009 RMK AO2 SLP188 T01390111
PAOU 210556Z AUTO 13010KT 10SM SCT037 OVC047 14/11 A3009 RMK AO2 SLP189 T01390111 10150 20128 55000
PAOU 210456Z AUTO 13013KT 10SM OVC039 14/11 A3009 RMK AO2 SLP188 T01390111
PAOU 210356Z AUTO 09007KT 10SM OVC030 14/12 A3009 RMK AO2 SLP189 T01390117
PAOU 210325Z AUTO 12011KT 10SM OVC030 13/11 A3009 RMK AO2
PAOU 210304Z AUTO 09008KT 10SM OVC028 14/11 A3009 RMK AO2
PAOU 210256Z AUTO 10007KT 1 1/4SM HZ OVC028 14/11 A3009 RMK AO2 SLP189 T01440111 55003
PAOU 210156Z AUTO 05006KT 10SM BKN024 OVC030 14/11 A3009 RMK AO2 SLP189 T01390111
PAOU 210056Z AUTO 04007KT 10SM OVC024 13/11 A3009 RMK AO2 SLP190 T01280106
PAOU 202356Z AUTO 02008KT 10SM OVC026 13/11 A3010 RMK AO2 SLP193 T01280111 10156 20128 58001
PAOU 202256Z AUTO 04008KT 10SM FEW017 OVC028 13/11 A3010 RMK AO2 SLP194 T01330111
PAOU 202224Z AUTO 02008KT 10SM BKN017 OVC025 13/11 A3011 RMK AO2
PAOU 202208Z AUTO 04007KT 2SM HZ SCT017 BKN025 OVC037 15/11 A3010 RMK AO2
PAOU 202156Z AUTO 11007KT 10SM FEW025 OVC037 16/12 A3011 RMK AO2 SLP195 T01560117
PAOU 202140Z AUTO 13009KT 10SM BKN030 OVC039 16/12 A3011 RMK AO2
PAOU 202113Z AUTO 11009KT 10SM OVC028 16/12 A3010 RMK AO2
PAOU 202056Z AUTO 12009KT 10SM OVC030 16/12 A3010 RMK AO2 SLP194 T01560117 55003
PAOU 201956Z AUTO 13013KT 10SM SCT028 SCT033 OVC060 15/11 A3010 RMK AO2 SLP193 T01500111
PAOU 201856Z AUTO 14011KT 10SM BKN028 BKN037 OVC046 14/11 A3011 RMK AO2 SLP195 T01390106
PAOU 201812Z AUTO 13006KT 10SM BKN028 OVC038 13/11 A3011 RMK AO2
PAOU 201756Z AUTO 15013KT 10SM OVC038 13/10 A3011 RMK AO2 SLP197 T01330100 10133 20122 53003
PAOU 201656Z AUTO 13007KT 7SM OVC038 13/10 A3011 RMK AO2 SLP195 T01280100
PAOU 201556Z AUTO 16012KT 10SM OVC036 13/10 A3011 RMK AO2 SLP195 T01280100
PAOU 201456Z AUTO 15013KT 10SM OVC042 12/09 A3010 RMK AO2 SLP194 T01220094 55002
PAOU 201356Z AUTO 15013KT 10SM OVC065 12/10 A3010 RMK AO2 SLP193 T01220100
PAOU 201256Z AUTO 14012KT 10SM OVC041 13/10 A3011 RMK AO2 SLP195 T01280100
PAOU 201156Z AUTO 16009KT 10SM BKN038 OVC055 13/10 A3011 RMK AO2 SLP196 T01280100 10133 20117 51001
PAOU 201056Z AUTO 17008KT 10SM BKN041 OVC060 13/11 A3011 RMK AO2 SLP195 T01280106
PAOU 200956Z AUTO 16006KT 10SM BKN034 BKN044 OVC055 13/11 A3011 RMK AO2 SLP196 T01330106
PAOU 200856Z AUTO 13007KT 10SM OVC036 13/11 A3011 RMK AO2 SLP195 T01330106 401390111 51003
PAOU 200756Z AUTO 14005KT 10SM OVC038 13/11 A3010 RMK AO2 SLP194 T01330111
PAOU 200656Z AUTO 09003KT 10SM OVC040 12/09 A3010 RMK AO2 SLP192 T01220094
PAOU 200556Z AUTO 02005KT 10SM BKN044 OVC070 12/10 A3010 RMK AO2 RAB11E43 SLP191 P0000 60000 T01170100 10139 20111 58007
PAOU 200456Z AUTO 36006KT 10SM OVC048 12/10 A3010 RMK AO2 SLP193 T01170100
PAOU 200356Z AUTO 01007KT 10SM BKN065 OVC080 12/10 A3011 RMK AO2 SLP197 T01220100
PAOU 200256Z AUTO 02004KT 10SM OVC080 13/09 A3012 RMK AO2 SLP198 T01280094 58007
PAOU 200156Z AUTO 03005KT 10SM FEW034 OVC055 13/08 A3012 RMK AO2 SLP200 T01330083
PAOU 200056Z AUTO 05007KT 10SM OVC055 13/09 A3013 RMK AO2 SLP204 T01330089
PAOU 192356Z AUTO 01007KT 10SM OVC060 12/09 A3014 RMK AO2 SLP205 T01220089 10128 20117 56001
PAOU 192311Z AUTO 05007KT 10SM SCT020 OVC055 13/09 A3014 RMK AO2
PAOU 192256Z AUTO 06008KT 10SM BKN020 OVC060 13/09 A3014 RMK AO2 SLP206 T01280089
PAOU 192216Z AUTO 06008KT 10SM BKN022 OVC055 12/09 A3014 RMK AO2
PAOU 192156Z AUTO 05011KT 10SM FEW020 OVC055 13/09 A3014 RMK AO2 SLP205 T01280089
PAOU 192124Z AUTO 05008KT 10SM FEW019 SCT024 OVC060 12/09 A3014 RMK AO2
PAOU 192105Z AUTO 05007KT 10SM BKN019 BKN024 OVC070 12/09 A3014 RMK AO2
PAOU 192056Z AUTO 05008KT 10SM SCT021 OVC070 12/09 A3014 RMK AO2 SLP206 T01220089 53002
PAOU 192052Z AUTO 05008KT 10SM SCT019 OVC070 12/09 A3014 RMK AO2
PAOU 192039Z AUTO 05010KT 10SM BKN019 OVC070 12/09 A3014 RMK AO2
PAOU 191956Z AUTO 05009KT 10SM SCT021 OVC075 12/09 A3013 RMK AO2 SLP203 T01170089
PAOU 191952Z AUTO 05008KT 10SM BKN021 OVC075 12/09 A3013 RMK AO2